createdAt,value
2018-05-08T00:01:20.999Z,3.00
2018-05-08T00:03:49.311Z,2.27
2018-05-08T00:06:17.610Z,2.43
2018-05-08T00:08:46.758Z,2.80
2018-05-08T00:11:15.019Z,2.90
2018-05-08T00:13:43.331Z,3.30
2018-05-08T00:16:11.626Z,3.20
2018-05-08T00:18:39.941Z,2.87
2018-05-08T00:21:08.235Z,2.80
2018-05-08T00:23:36.534Z,2.83
2018-05-08T00:26:04.852Z,2.80
2018-05-08T00:28:33.160Z,3.30
2018-05-08T00:31:01.457Z,3.43
2018-05-08T00:33:29.750Z,2.87
2018-05-08T00:35:58.062Z,2.50
2018-05-08T00:38:27.123Z,2.73
2018-05-08T00:40:55.429Z,3.47
2018-05-08T00:43:24.498Z,3.07
2018-05-08T00:45:52.809Z,3.47
2018-05-08T00:48:21.866Z,2.30
2018-05-08T00:50:50.180Z,3.40
2018-05-08T00:53:18.476Z,3.53
2018-05-08T00:55:46.788Z,3.50
2018-05-08T00:58:15.080Z,3.20
2018-05-08T01:00:43.381Z,3.13
2018-05-08T01:03:11.683Z,2.90
2018-05-08T01:05:39.985Z,3.77
2018-05-08T01:08:08.726Z,2.97
2018-05-08T01:10:37.035Z,2.97
2018-05-08T01:13:05.336Z,3.53
2018-05-08T01:15:33.617Z,4.23
2018-05-08T01:18:02.701Z,3.70
2018-05-08T01:20:30.987Z,3.90
2018-05-08T01:22:59.303Z,3.57
2018-05-08T01:25:28.362Z,3.67
2018-05-08T01:27:56.672Z,3.90
2018-05-08T01:30:24.957Z,3.30
2018-05-08T01:32:54.037Z,3.80
2018-05-08T01:35:22.334Z,3.97
2018-05-08T01:37:51.415Z,3.33
2018-05-08T01:40:19.706Z,3.93
2018-05-08T01:42:48.782Z,3.00
2018-05-08T01:45:17.065Z,3.90
2018-05-08T01:47:46.141Z,3.83
2018-05-08T01:50:14.424Z,3.57
2018-05-08T01:52:42.738Z,3.83
2018-05-08T01:55:11.031Z,4.07
2018-05-08T01:57:39.347Z,4.50
2018-05-08T02:00:07.637Z,4.20
2018-05-08T02:02:35.931Z,4.07
2018-05-08T02:05:05.010Z,3.00
2018-05-08T02:07:33.297Z,3.80
2018-05-08T02:10:02.372Z,4.00
2018-05-08T02:12:30.685Z,3.10
2018-05-08T02:14:59.766Z,4.10
2018-05-08T02:17:28.049Z,3.87
2018-05-08T02:19:57.136Z,3.73
2018-05-08T02:22:25.434Z,3.87
2018-05-08T02:24:53.763Z,3.50
2018-05-08T02:27:22.040Z,3.60
2018-05-08T02:29:50.346Z,3.80
2018-05-08T02:32:19.397Z,4.07
2018-05-08T02:34:47.711Z,3.63
2018-05-08T02:37:15.995Z,3.97
2018-05-08T02:39:45.070Z,3.40
2018-05-08T02:42:13.355Z,3.50
2018-05-08T02:44:41.648Z,4.20
2018-05-08T02:47:09.962Z,3.10
2018-05-08T02:49:38.309Z,4.10
2018-05-08T02:52:07.380Z,3.30
2018-05-08T02:54:35.659Z,3.77
2018-05-08T02:57:03.961Z,3.50
2018-05-08T02:59:33.007Z,4.23
2018-05-08T03:02:01.301Z,3.77
2018-05-08T03:04:29.599Z,3.20
2018-05-08T03:06:57.891Z,4.00
2018-05-08T03:09:26.178Z,3.73
2018-05-08T03:11:54.504Z,3.60
2018-05-08T03:14:22.775Z,3.57
2018-05-08T03:16:51.089Z,3.73
2018-05-08T03:19:20.137Z,3.43
2018-05-08T03:21:48.442Z,4.20
2018-05-08T03:24:16.713Z,3.90
2018-05-08T03:26:45.022Z,3.43
2018-05-08T03:29:14.074Z,4.20
2018-05-08T03:31:42.363Z,3.30
2018-05-08T03:34:10.648Z,3.30
2018-05-08T03:36:38.941Z,3.47
2018-05-08T03:39:07.250Z,4.27
2018-05-08T03:41:35.574Z,2.97
2018-05-08T03:44:03.858Z,3.30
2018-05-08T03:46:32.152Z,3.37
2018-05-08T03:49:01.196Z,3.57
2018-05-08T03:51:29.469Z,5.57
2018-05-08T03:53:57.763Z,3.70
2018-05-08T03:56:26.050Z,3.27
2018-05-08T03:58:54.341Z,4.10
2018-05-08T04:01:34.555Z,3.50
2018-05-08T04:04:14.629Z,3.23
2018-05-08T04:07:03.633Z,3.47
2018-05-08T04:09:32.676Z,3.70
2018-05-08T04:12:00.956Z,4.03
2018-05-08T04:14:29.248Z,3.70
2018-05-08T04:16:59.154Z,4.07
2018-05-08T04:19:27.450Z,3.70
2018-05-08T04:21:55.740Z,3.80
2018-05-08T04:24:24.800Z,4.07
2018-05-08T04:26:53.084Z,4.50
2018-05-08T04:29:21.389Z,3.33
2018-05-08T04:31:50.440Z,3.27
2018-05-08T04:34:18.742Z,3.80
2018-05-08T04:36:47.046Z,4.30
2018-05-08T04:39:16.095Z,3.37
2018-05-08T04:41:44.367Z,3.63
2018-05-08T04:44:12.669Z,3.90
2018-05-08T04:46:40.958Z,3.73
2018-05-08T04:49:09.244Z,4.00
2018-05-08T04:51:37.527Z,3.60
2018-05-08T04:54:05.820Z,4.13
2018-05-08T04:56:34.102Z,3.77
2018-05-08T04:59:02.408Z,4.10
2018-05-08T05:01:30.682Z,7.40
2018-05-08T05:03:58.988Z,5.20
2018-05-08T05:06:27.270Z,5.10
2018-05-08T05:08:55.545Z,3.77
2018-05-08T05:11:23.846Z,4.60
2018-05-08T05:13:52.884Z,4.13
2018-05-08T05:16:21.193Z,4.07
2018-05-08T05:18:49.457Z,3.83
2018-05-08T05:21:17.761Z,3.10
2018-05-08T05:23:46.816Z,3.53
2018-05-08T05:26:15.118Z,3.30
2018-05-08T05:28:43.406Z,3.47
2018-05-08T05:31:11.709Z,3.97
2018-05-08T05:33:39.984Z,4.40
2018-05-08T05:36:08.303Z,4.60
2018-05-08T05:38:36.580Z,3.60
2018-05-08T05:41:04.905Z,4.10
2018-05-08T05:43:33.968Z,3.63
2018-05-08T05:46:02.267Z,4.23
2018-05-08T05:48:31.326Z,3.53
2018-05-08T05:50:59.632Z,3.80
2018-05-08T05:53:27.915Z,2.83
2018-05-08T05:55:56.205Z,3.00
2018-05-08T05:58:25.278Z,3.30
2018-05-08T06:00:53.571Z,3.30
2018-05-08T06:03:22.646Z,3.20
2018-05-08T06:05:50.933Z,3.60
2018-05-08T06:08:19.246Z,3.20
2018-05-08T06:10:47.537Z,3.40
2018-05-08T06:13:15.840Z,3.07
2018-05-08T06:15:44.132Z,2.83
2018-05-08T06:18:12.430Z,2.63
2018-05-08T06:20:41.486Z,2.90
2018-05-08T06:23:09.788Z,2.87
2018-05-08T06:25:38.081Z,2.40
2018-05-08T06:28:07.145Z,2.97
2018-05-08T06:30:37.081Z,2.80
2018-05-08T06:33:05.376Z,2.30
2018-05-08T06:35:33.660Z,3.13
2018-05-08T06:38:01.970Z,2.70
2018-05-08T06:40:30.249Z,2.80
2018-05-08T06:42:58.553Z,2.70
2018-05-08T06:45:26.839Z,2.70
2018-05-08T06:47:55.149Z,2.30
2018-05-08T06:50:23.428Z,3.30
2018-05-08T06:52:51.739Z,2.57
2018-05-08T06:55:20.021Z,2.67
2018-05-08T06:57:48.301Z,2.90
2018-05-08T07:00:16.604Z,2.40
2018-05-08T07:02:44.889Z,3.00
2018-05-08T07:05:13.963Z,2.20
2018-05-08T07:07:42.246Z,2.20
2018-05-08T07:10:10.565Z,2.00
2018-05-08T07:12:38.845Z,2.50
2018-05-08T07:15:07.145Z,2.03
2018-05-08T07:17:35.429Z,2.33
2018-05-08T07:20:03.737Z,2.43
2018-05-08T07:22:32.792Z,2.53
2018-05-08T07:25:01.094Z,2.00
2018-05-08T07:27:29.384Z,2.00
2018-05-08T07:29:57.720Z,2.03
2018-05-08T07:32:25.991Z,1.93
2018-05-08T07:34:54.289Z,1.73
2018-05-08T07:37:22.564Z,1.93
2018-05-08T07:39:50.872Z,2.40
2018-05-08T07:42:19.153Z,2.00
2018-05-08T07:44:47.452Z,1.80
2018-05-08T07:47:15.737Z,2.47
2018-05-08T07:49:44.069Z,1.60
2018-05-08T07:52:12.349Z,1.70
2018-05-08T07:54:40.642Z,1.60
2018-05-08T07:57:09.771Z,2.00
2018-05-08T07:59:38.062Z,2.17
2018-05-08T08:02:06.371Z,2.30
2018-05-08T08:04:34.670Z,1.83
2018-05-08T08:07:03.741Z,2.13
2018-05-08T08:09:32.022Z,2.60
2018-05-08T08:12:00.319Z,1.57
2018-05-08T08:14:29.364Z,2.03
2018-05-08T08:16:57.665Z,2.37
2018-05-08T08:19:25.948Z,2.60
2018-05-08T08:21:54.248Z,2.70
2018-05-08T08:24:23.295Z,2.03
2018-05-08T08:26:51.602Z,2.30
2018-05-08T08:29:19.881Z,1.70
2018-05-08T08:31:48.179Z,2.07
2018-05-08T08:34:17.227Z,2.20
2018-05-08T08:36:45.547Z,2.50
2018-05-08T08:39:14.600Z,1.90
2018-05-08T08:41:42.926Z,2.47
2018-05-08T08:44:11.990Z,2.07
2018-05-08T08:46:40.280Z,2.10
2018-05-08T08:49:08.580Z,2.53
2018-05-08T08:51:37.626Z,2.00
2018-05-08T08:54:05.940Z,2.33
2018-05-08T08:56:34.987Z,2.37
2018-05-08T08:59:03.289Z,2.17
2018-05-08T09:01:31.559Z,1.90
2018-05-08T09:03:59.928Z,2.10
2018-05-08T09:06:28.922Z,1.83
2018-05-08T09:08:57.220Z,2.07
2018-05-08T09:11:25.508Z,1.73
2018-05-08T09:13:53.850Z,1.50
2018-05-08T09:16:22.112Z,2.60
2018-05-08T09:18:50.427Z,2.50
2018-05-08T09:21:18.701Z,2.37
2018-05-08T09:23:46.996Z,1.73
2018-05-08T09:26:15.280Z,2.50
2018-05-08T09:28:44.372Z,2.50
2018-05-08T09:31:12.649Z,2.43
2018-05-08T09:33:41.727Z,1.90
2018-05-08T09:36:10.004Z,2.20
2018-05-08T09:38:38.313Z,2.23
2018-05-08T09:41:07.378Z,1.70
2018-05-08T09:43:35.670Z,2.20
2018-05-08T09:46:03.977Z,1.80
2018-05-08T09:48:32.261Z,1.80
2018-05-08T09:51:00.552Z,1.80
2018-05-08T09:53:28.842Z,1.80
2018-05-08T09:55:57.152Z,5.00
2018-05-08T09:58:25.429Z,2.17
2018-05-08T10:00:53.765Z,2.20
2018-05-08T10:03:22.023Z,2.03
2018-05-08T10:05:50.328Z,2.00
2018-05-08T10:08:18.613Z,1.43
2018-05-08T10:10:46.926Z,1.80
2018-05-08T10:13:15.976Z,1.40
2018-05-08T10:15:44.280Z,1.60
2018-05-08T10:18:12.589Z,1.80
2018-05-08T10:20:40.949Z,1.80
2018-05-08T10:23:09.184Z,2.10
2018-05-08T10:25:37.495Z,1.47
2018-05-08T10:28:05.775Z,1.50
2018-05-08T10:30:34.097Z,1.83
2018-05-08T10:33:02.487Z,1.80
2018-05-08T10:35:30.720Z,1.50
2018-05-08T10:37:58.996Z,1.70
2018-05-08T10:40:28.088Z,1.30
2018-05-08T10:42:57.150Z,1.63
2018-05-08T10:45:25.467Z,1.47
2018-05-08T10:47:54.508Z,1.73
2018-05-08T10:50:22.802Z,1.47
2018-05-08T10:52:51.101Z,1.40
2018-05-08T10:55:19.371Z,1.30
2018-05-08T10:57:47.681Z,1.30
2018-05-08T11:00:15.964Z,1.67
2018-05-08T11:02:44.260Z,1.43
2018-05-08T11:05:13.305Z,1.60
2018-05-08T11:07:41.612Z,1.53
2018-05-08T11:10:09.943Z,1.37
2018-05-08T11:12:38.251Z,1.30
2018-05-08T11:15:07.297Z,1.23
2018-05-08T11:17:35.604Z,1.30
2018-05-08T11:20:03.885Z,1.20
2018-05-08T11:22:32.193Z,1.60
2018-05-08T11:25:00.477Z,1.17
2018-05-08T11:27:28.776Z,1.20
2018-05-08T11:29:57.061Z,1.33
2018-05-08T11:32:25.392Z,1.47
2018-05-08T11:34:55.357Z,1.20
2018-05-08T11:37:23.656Z,1.40
2018-05-08T11:39:51.939Z,0.93
2018-05-08T11:42:20.239Z,1.20
2018-05-08T11:44:48.659Z,1.53
2018-05-08T11:47:16.900Z,1.53
2018-05-08T11:49:45.179Z,1.63
2018-05-08T11:52:13.495Z,1.27
2018-05-08T11:54:41.781Z,1.53
2018-05-08T11:57:10.091Z,1.50
2018-05-08T11:59:39.135Z,1.43
2018-05-08T12:02:07.424Z,1.60
2018-05-08T12:04:35.720Z,1.43
2018-05-08T12:07:04.001Z,1.23
2018-05-08T12:09:35.942Z,1.20
2018-05-08T12:12:04.222Z,1.20
2018-05-08T12:14:32.600Z,1.53
2018-05-08T12:17:01.591Z,1.30
2018-05-08T12:19:29.884Z,1.30
2018-05-08T12:21:58.164Z,1.50
2018-05-08T12:24:26.468Z,1.20
2018-05-08T12:26:55.521Z,1.60
2018-05-08T12:29:23.827Z,1.53
2018-05-08T12:31:52.887Z,1.17
2018-05-08T12:34:21.197Z,1.30
2018-05-08T12:36:50.244Z,1.30
2018-05-08T12:39:18.549Z,1.43
2018-05-08T12:41:46.824Z,1.50
2018-05-08T12:44:15.137Z,1.10
2018-05-08T12:46:44.186Z,1.53
2018-05-08T12:49:12.493Z,1.63
2018-05-08T12:51:40.773Z,1.43
2018-05-08T12:54:09.092Z,1.70
2018-05-08T12:56:37.380Z,1.60
2018-05-08T12:59:05.727Z,1.67
2018-05-08T13:01:34.092Z,1.53
2018-05-08T13:04:02.378Z,1.40
2018-05-08T13:06:31.447Z,1.63
2018-05-08T13:08:59.752Z,1.60
2018-05-08T13:11:28.064Z,1.63
2018-05-08T13:13:56.356Z,1.63
2018-05-08T13:16:24.659Z,1.60
2018-05-08T13:18:52.955Z,2.40
2018-05-08T13:21:22.051Z,1.70
2018-05-08T13:23:50.330Z,1.67
2018-05-08T13:26:19.397Z,1.40
2018-05-08T13:28:47.695Z,1.90
2018-05-08T13:31:16.773Z,1.83
2018-05-08T13:33:45.060Z,1.80
2018-05-08T13:36:13.362Z,2.00
2018-05-08T13:38:41.655Z,1.83
2018-05-08T13:41:09.969Z,1.77
2018-05-08T13:43:38.267Z,1.97
2018-05-08T13:46:06.583Z,2.10
2018-05-08T13:48:34.877Z,1.90
2018-05-08T13:51:03.167Z,2.00
2018-05-08T13:53:31.473Z,1.60
2018-05-08T13:55:59.749Z,1.90
2018-05-08T13:58:28.059Z,1.80
2018-05-08T14:00:56.405Z,2.10
2018-05-08T14:03:24.682Z,2.97
2018-05-08T14:05:52.983Z,2.00
2018-05-08T14:08:22.049Z,1.60
2018-05-08T14:10:50.329Z,1.80
2018-05-08T14:13:18.627Z,1.50
2018-05-08T14:15:47.700Z,1.70
2018-05-08T14:18:16.003Z,1.60
2018-05-08T14:20:45.060Z,1.90
2018-05-08T14:23:13.367Z,1.50
2018-05-08T14:25:42.404Z,1.73
2018-05-08T14:28:10.709Z,1.87
2018-05-08T14:30:38.997Z,2.07
2018-05-08T14:33:07.336Z,1.43
2018-05-08T14:35:35.628Z,2.20
2018-05-08T14:38:03.927Z,1.60
2018-05-08T14:40:32.207Z,1.70
2018-05-08T14:43:00.533Z,1.70
2018-05-08T14:45:31.906Z,1.70
2018-05-08T14:48:00.245Z,1.57
2018-05-08T14:50:28.534Z,1.83
2018-05-08T14:52:56.810Z,1.67
2018-05-08T14:55:25.114Z,1.83
2018-05-08T14:57:53.404Z,1.77
2018-05-08T15:00:21.712Z,2.00
2018-05-08T15:02:50.756Z,1.87
2018-05-08T15:05:19.055Z,1.63
2018-05-08T15:07:47.343Z,1.47
2018-05-08T15:10:15.768Z,1.80
2018-05-08T15:12:44.070Z,1.90
2018-05-08T15:15:12.387Z,2.30
2018-05-08T15:17:40.754Z,2.20
2018-05-08T15:20:09.048Z,1.77
2018-05-08T15:22:37.328Z,1.87
2018-05-08T15:25:06.399Z,2.10
2018-05-08T15:27:34.704Z,2.90
2018-05-08T15:30:03.864Z,2.33
2018-05-08T15:32:32.156Z,2.80
2018-05-08T15:35:00.458Z,2.50
2018-05-08T15:37:28.802Z,2.30
2018-05-08T15:39:57.149Z,2.37
2018-05-08T15:42:25.460Z,2.20
2018-05-08T15:44:53.772Z,1.63
2018-05-08T15:47:22.880Z,2.17
2018-05-08T15:49:51.126Z,1.90
2018-05-08T15:52:19.437Z,2.50
2018-05-08T15:54:50.507Z,2.13
2018-05-08T15:57:19.688Z,1.80
2018-05-08T15:59:48.522Z,1.97
2018-05-08T16:02:17.627Z,1.93
2018-05-08T16:04:46.289Z,1.93
2018-05-08T16:07:15.000Z,2.33
2018-05-08T16:09:43.821Z,2.03
2018-05-08T16:12:12.260Z,1.87
2018-05-08T16:14:40.918Z,1.97
2018-05-08T16:17:09.671Z,2.30
2018-05-08T16:19:41.982Z,1.80
2018-05-08T16:22:11.374Z,1.80
2018-05-08T16:24:40.060Z,1.80
2018-05-08T16:27:09.402Z,2.00
2018-05-08T16:29:37.800Z,2.00
2018-05-08T16:32:06.182Z,2.03
2018-05-08T16:34:35.420Z,2.30
2018-05-08T16:37:04.065Z,1.60
2018-05-08T16:39:33.457Z,1.83
2018-05-08T16:42:02.598Z,1.83
2018-05-08T16:44:32.794Z,1.70
2018-05-08T16:47:02.157Z,1.80
2018-05-08T16:49:32.729Z,2.00
2018-05-08T16:52:06.664Z,2.23
2018-05-08T16:54:38.662Z,2.30
2018-05-08T16:57:11.514Z,2.37
2018-05-08T16:59:42.742Z,2.47
2018-05-08T17:02:22.595Z,1.97
2018-05-08T17:04:53.639Z,2.10
2018-05-08T17:07:30.210Z,1.93
2018-05-08T17:10:00.647Z,1.97
2018-05-08T17:12:31.088Z,1.70
2018-05-08T17:14:59.376Z,2.00
2018-05-08T17:17:28.736Z,2.40
2018-05-08T17:19:57.029Z,2.30
2018-05-08T17:22:25.381Z,2.30
2018-05-08T17:24:54.627Z,2.50
2018-05-08T17:27:23.736Z,2.00
2018-05-08T17:29:52.155Z,2.17
2018-05-08T17:32:20.441Z,2.20
2018-05-08T17:34:48.769Z,1.93
2018-05-08T17:37:17.060Z,2.47
2018-05-08T17:39:46.335Z,1.80
2018-05-08T17:42:15.629Z,2.50
2018-05-08T17:44:43.936Z,2.10
2018-05-08T17:47:17.108Z,2.60
2018-05-08T17:49:45.432Z,3.27
2018-05-08T17:52:14.505Z,2.20
2018-05-08T17:54:42.820Z,2.37
2018-05-08T17:57:11.101Z,2.53
2018-05-08T17:59:39.410Z,2.20
2018-05-08T18:02:07.689Z,2.80
2018-05-08T18:04:36.760Z,2.33
2018-05-08T18:07:05.040Z,2.00
2018-05-08T18:09:33.356Z,2.60
2018-05-08T18:12:01.645Z,2.20
2018-05-08T18:14:29.928Z,2.00
2018-05-08T18:16:59.015Z,2.73
2018-05-08T18:19:27.289Z,2.40
2018-05-08T18:21:55.624Z,2.43
2018-05-08T18:24:23.912Z,2.40
2018-05-08T18:26:52.221Z,2.70
2018-05-08T18:29:20.508Z,2.07
2018-05-08T18:31:48.828Z,2.37
2018-05-08T18:34:17.117Z,2.27
2018-05-08T18:36:45.411Z,2.77
2018-05-08T18:39:13.704Z,2.67
2018-05-08T18:41:42.013Z,2.30
2018-05-08T18:44:11.073Z,2.40
2018-05-08T18:46:39.399Z,2.70
2018-05-08T18:49:07.688Z,2.60
2018-05-08T18:51:35.999Z,2.97
2018-05-08T18:54:04.282Z,2.30
2018-05-08T18:56:32.614Z,2.43
2018-05-08T18:59:00.925Z,3.17
2018-05-08T19:01:29.208Z,2.27
2018-05-08T19:03:57.539Z,3.60
2018-05-08T19:06:26.596Z,2.30
2018-05-08T19:08:54.905Z,3.43
2018-05-08T19:11:29.687Z,2.40
2018-05-08T19:13:58.017Z,3.00
2018-05-08T19:16:27.071Z,2.67
2018-05-08T19:19:00.952Z,3.23
2018-05-08T19:21:29.250Z,3.10
2018-05-08T19:24:03.200Z,2.70
2018-05-08T19:26:32.266Z,3.33
2018-05-08T19:29:06.273Z,3.00
2018-05-08T19:31:34.559Z,2.83
2018-05-08T19:34:02.873Z,3.37
2018-05-08T19:36:36.736Z,3.17
2018-05-08T19:39:05.965Z,3.33
2018-05-08T19:41:34.160Z,3.73
2018-05-08T19:44:02.464Z,4.03
2018-05-08T19:46:30.759Z,4.80
2018-05-08T19:48:59.103Z,5.03
2018-05-08T19:51:27.409Z,3.97
2018-05-08T19:53:55.724Z,5.07
2018-05-08T19:56:24.794Z,4.67
2018-05-08T19:58:53.109Z,4.07
2018-05-08T20:01:24.812Z,3.90
2018-05-08T20:03:53.135Z,4.27
2018-05-08T20:06:22.201Z,4.30
2018-05-08T20:08:50.594Z,4.67
2018-05-08T20:11:18.800Z,4.63
2018-05-08T20:13:47.086Z,4.87
2018-05-08T20:16:15.406Z,4.40
2018-05-08T20:18:43.699Z,4.57
2018-05-08T20:21:12.014Z,4.60
2018-05-08T20:23:40.297Z,4.70
2018-05-08T20:26:08.607Z,4.50
2018-05-08T20:28:36.896Z,4.60
2018-05-08T20:31:05.975Z,4.10
2018-05-08T20:33:34.265Z,3.93
2018-05-08T20:36:02.658Z,4.13
2018-05-08T20:38:30.907Z,4.00
2018-05-08T20:40:59.217Z,3.90
2018-05-08T20:43:27.511Z,4.97
2018-05-08T20:45:56.575Z,3.93
2018-05-08T20:48:24.868Z,3.90
2018-05-08T20:50:53.949Z,3.77
2018-05-08T20:53:22.224Z,4.17
2018-05-08T20:55:50.522Z,4.60
2018-05-08T20:58:19.574Z,4.03
2018-05-08T21:00:47.917Z,4.50
2018-05-08T21:03:16.960Z,4.60
2018-05-08T21:05:45.264Z,4.03
2018-05-08T21:08:13.564Z,4.83
2018-05-08T21:10:41.872Z,4.83
2018-05-08T21:13:10.156Z,5.00
2018-05-08T21:15:38.470Z,5.20
2018-05-08T21:18:07.533Z,4.67
2018-05-08T21:20:35.846Z,4.67
2018-05-08T21:23:04.152Z,5.30
2018-05-08T21:25:32.440Z,4.43
2018-05-08T21:28:06.313Z,4.03
2018-05-08T21:30:41.184Z,5.43
2018-05-08T21:33:09.449Z,5.07
2018-05-08T21:35:37.747Z,5.03
2018-05-08T21:38:06.055Z,5.13
2018-05-08T21:40:34.341Z,4.70
2018-05-08T21:43:02.653Z,4.50
2018-05-08T21:45:30.933Z,4.80
2018-05-08T21:47:59.257Z,5.30
2018-05-08T21:50:27.541Z,4.73
2018-05-08T21:52:55.867Z,5.30
2018-05-08T21:55:24.154Z,4.53
2018-05-08T21:57:52.473Z,4.53
2018-05-08T22:00:20.756Z,4.93
2018-05-08T22:02:49.069Z,5.10
2018-05-08T22:05:17.376Z,5.20
2018-05-08T22:07:45.698Z,4.70
2018-05-08T22:10:13.980Z,5.27
2018-05-08T22:12:43.026Z,5.30
2018-05-08T22:15:11.347Z,4.80
2018-05-08T22:17:40.393Z,5.33
2018-05-08T22:20:08.723Z,4.90
2018-05-08T22:22:36.993Z,4.57
2018-05-08T22:25:06.149Z,5.13
2018-05-08T22:27:34.369Z,5.70
2018-05-08T22:30:03.467Z,5.20
2018-05-08T22:32:31.781Z,4.53
2018-05-08T22:35:00.108Z,5.40
2018-05-08T22:37:28.394Z,5.30
2018-05-08T22:39:56.692Z,5.00
2018-05-08T22:42:24.980Z,5.97
2018-05-08T22:44:53.289Z,5.50
2018-05-08T22:47:21.563Z,6.30
2018-05-08T22:49:49.894Z,5.10
2018-05-08T22:52:18.943Z,5.27
2018-05-08T22:54:47.256Z,5.60
2018-05-08T22:57:16.307Z,4.60
2018-05-08T22:59:44.613Z,5.50
2018-05-08T23:02:12.921Z,5.30
2018-05-08T23:04:41.204Z,4.90
2018-05-08T23:07:09.517Z,5.00
2018-05-08T23:09:37.825Z,6.03
2018-05-08T23:12:06.124Z,4.90
2018-05-08T23:14:35.175Z,4.97
2018-05-08T23:17:03.479Z,4.97
2018-05-08T23:19:31.777Z,5.60
2018-05-08T23:22:00.843Z,5.13
2018-05-08T23:24:29.136Z,5.30
2018-05-08T23:26:57.445Z,6.03
2018-05-08T23:29:25.738Z,5.17
2018-05-08T23:31:54.035Z,6.37
2018-05-08T23:34:22.317Z,5.67
2018-05-08T23:36:50.640Z,6.23
2018-05-08T23:39:18.919Z,6.00
2018-05-08T23:41:47.231Z,5.53
2018-05-08T23:44:15.514Z,5.80
2018-05-08T23:46:43.825Z,5.80
2018-05-08T23:49:12.112Z,5.73
2018-05-08T23:51:41.213Z,5.57
2018-05-08T23:54:10.272Z,5.90
2018-05-08T23:56:38.591Z,5.67
2018-05-08T23:59:07.644Z,6.20
